createdAt,value
2022-12-29T00:00:02.519Z,984.76
2022-12-29T00:01:02.742Z,984.71
2022-12-29T00:02:02.499Z,984.62
2022-12-29T00:03:02.592Z,984.69
2022-12-29T00:04:02.504Z,984.65
2022-12-29T00:05:02.484Z,984.70
2022-12-29T00:06:02.587Z,984.61
2022-12-29T00:07:02.507Z,984.68
2022-12-29T00:08:02.420Z,984.68
2022-12-29T00:09:02.425Z,984.60
2022-12-29T00:10:02.519Z,984.76
2022-12-29T00:11:02.401Z,984.72
2022-12-29T00:12:02.416Z,984.64
2022-12-29T00:13:02.466Z,984.72
2022-12-29T00:14:02.407Z,984.68
2022-12-29T00:15:02.356Z,984.66
2022-12-29T00:16:02.482Z,984.74
2022-12-29T00:17:02.435Z,984.64
2022-12-29T00:18:02.558Z,984.58
2022-12-29T00:19:02.352Z,984.37
2022-12-29T00:20:02.377Z,984.72
2022-12-29T00:21:02.340Z,984.75
2022-12-29T00:22:02.372Z,984.62
2022-12-29T00:23:02.366Z,984.71
2022-12-29T00:24:02.418Z,984.65
2022-12-29T00:25:02.752Z,984.61
2022-12-29T00:26:02.330Z,984.75
2022-12-29T00:27:02.317Z,984.66
2022-12-29T00:28:07.340Z,984.62
2022-12-29T00:29:03.345Z,984.58
2022-12-29T00:30:02.360Z,984.67
2022-12-29T00:31:02.334Z,984.63
2022-12-29T00:32:02.309Z,984.73
2022-12-29T00:33:02.321Z,984.60
2022-12-29T00:34:02.289Z,984.62
2022-12-29T00:35:02.295Z,984.60
2022-12-29T00:36:02.371Z,984.71
2022-12-29T00:37:02.240Z,984.67
2022-12-29T00:38:02.245Z,984.62
2022-12-29T00:39:02.263Z,984.64
2022-12-29T00:40:02.202Z,984.60
2022-12-29T00:41:02.302Z,984.62
2022-12-29T00:42:02.286Z,984.61
2022-12-29T00:43:02.188Z,984.65
2022-12-29T00:44:02.266Z,984.59
2022-12-29T00:45:02.167Z,984.57
2022-12-29T00:46:02.248Z,984.57
2022-12-29T00:47:02.282Z,984.57
2022-12-29T00:48:02.196Z,984.62
2022-12-29T00:49:02.152Z,984.52
2022-12-29T00:50:02.185Z,984.52
2022-12-29T00:51:02.162Z,984.46
2022-12-29T00:52:02.813Z,984.55
2022-12-29T00:53:02.118Z,984.48
2022-12-29T00:54:02.104Z,984.58
2022-12-29T00:55:02.098Z,984.65
2022-12-29T00:56:02.101Z,984.50
2022-12-29T00:57:02.077Z,984.50
2022-12-29T00:58:02.089Z,984.50
2022-12-29T00:59:02.211Z,984.49
2022-12-29T01:00:02.089Z,984.52
2022-12-29T01:01:02.156Z,984.53
2022-12-29T01:02:02.161Z,984.56
2022-12-29T01:03:02.261Z,984.53
2022-12-29T01:04:04.276Z,984.61
2022-12-29T01:05:02.366Z,984.57
2022-12-29T01:06:02.137Z,984.52
2022-12-29T01:07:02.041Z,984.51
2022-12-29T01:08:02.002Z,984.49
2022-12-29T01:09:02.010Z,984.55
2022-12-29T01:10:02.332Z,984.55
2022-12-29T01:11:02.021Z,984.54
2022-12-29T01:12:02.204Z,984.56
2022-12-29T01:13:01.977Z,984.53
2022-12-29T01:14:01.951Z,984.46
2022-12-29T01:15:01.967Z,984.46
2022-12-29T01:16:02.123Z,984.42
2022-12-29T01:17:01.981Z,984.29
2022-12-29T01:18:01.944Z,984.41
2022-12-29T01:19:01.941Z,984.38
2022-12-29T01:20:01.976Z,984.40
2022-12-29T01:21:01.958Z,984.35
2022-12-29T01:22:02.057Z,984.27
2022-12-29T01:23:01.918Z,984.29
2022-12-29T01:24:02.011Z,984.26
2022-12-29T01:25:01.894Z,984.27
2022-12-29T01:26:01.866Z,984.25
2022-12-29T01:27:01.884Z,984.26
2022-12-29T01:28:02.485Z,984.27
2022-12-29T01:29:01.867Z,984.22
2022-12-29T01:30:01.919Z,984.17
2022-12-29T01:31:01.849Z,984.20
2022-12-29T01:32:01.988Z,984.16
2022-12-29T01:33:01.843Z,984.13
2022-12-29T01:34:01.814Z,984.07
2022-12-29T01:35:01.846Z,984.10
2022-12-29T01:36:01.821Z,984.01
2022-12-29T01:37:01.827Z,984.02
2022-12-29T01:38:01.863Z,983.90
2022-12-29T01:39:02.081Z,983.78
2022-12-29T01:40:01.808Z,983.80
2022-12-29T01:41:01.814Z,983.94
2022-12-29T01:42:01.776Z,983.91
2022-12-29T01:43:01.762Z,983.89
2022-12-29T01:44:01.748Z,983.95
2022-12-29T01:45:01.779Z,983.98
2022-12-29T01:46:01.881Z,983.99
2022-12-29T01:47:01.768Z,984.04
2022-12-29T01:48:01.765Z,983.98
2022-12-29T01:49:01.746Z,984.03
2022-12-29T01:50:01.750Z,984.16
2022-12-29T01:51:01.712Z,984.14
2022-12-29T01:52:01.696Z,984.06
2022-12-29T01:53:01.752Z,984.00
2022-12-29T01:54:01.699Z,984.04
2022-12-29T01:55:01.712Z,984.04
2022-12-29T01:56:01.781Z,983.93
2022-12-29T01:57:01.669Z,983.95
2022-12-29T01:58:01.684Z,984.00
2022-12-29T01:59:01.868Z,984.00
2022-12-29T02:00:01.753Z,984.10
2022-12-29T02:01:01.732Z,984.12
2022-12-29T02:02:01.772Z,983.94
2022-12-29T02:03:01.794Z,983.89
2022-12-29T02:04:01.643Z,983.92
2022-12-29T02:05:04.639Z,983.87
2022-12-29T02:06:01.601Z,983.95
2022-12-29T02:07:01.628Z,983.92
2022-12-29T02:08:01.613Z,983.97
2022-12-29T02:09:01.597Z,983.95
2022-12-29T02:10:01.595Z,983.93
2022-12-29T02:11:01.584Z,983.90
2022-12-29T02:12:01.719Z,983.93
2022-12-29T02:13:01.556Z,983.77
2022-12-29T02:14:03.704Z,983.89
2022-12-29T02:15:01.567Z,983.75
2022-12-29T02:16:01.561Z,983.85
2022-12-29T02:17:01.544Z,983.86
2022-12-29T02:18:01.514Z,983.88
2022-12-29T02:19:01.511Z,983.82
2022-12-29T02:20:01.650Z,983.82
2022-12-29T02:21:01.488Z,983.73
2022-12-29T02:22:01.562Z,983.71
2022-12-29T02:23:01.513Z,983.69
2022-12-29T02:24:01.510Z,983.73
2022-12-29T02:25:01.486Z,983.80
2022-12-29T02:26:01.513Z,983.86
2022-12-29T02:27:01.564Z,983.84
2022-12-29T02:28:01.531Z,983.84
2022-12-29T02:29:01.567Z,983.84
2022-12-29T02:30:01.446Z,983.78
2022-12-29T02:31:01.425Z,983.69
2022-12-29T02:32:01.495Z,983.69
2022-12-29T02:33:01.419Z,983.73
2022-12-29T02:34:01.440Z,983.71
2022-12-29T02:35:01.404Z,983.80
2022-12-29T02:36:01.402Z,983.72
2022-12-29T02:37:01.512Z,983.80
2022-12-29T02:38:01.383Z,983.65
2022-12-29T02:39:01.366Z,983.85
2022-12-29T02:40:01.396Z,983.81
2022-12-29T02:41:01.347Z,983.77
2022-12-29T02:42:01.416Z,983.70
2022-12-29T02:43:01.368Z,983.66
2022-12-29T02:44:01.346Z,983.65
2022-12-29T02:45:01.331Z,983.65
2022-12-29T02:46:01.387Z,983.77
2022-12-29T02:47:01.327Z,983.69
2022-12-29T02:48:01.316Z,983.61
2022-12-29T02:49:01.312Z,983.64
2022-12-29T02:50:01.352Z,983.61
2022-12-29T02:51:01.287Z,983.61
2022-12-29T02:52:01.295Z,983.56
2022-12-29T02:53:01.262Z,983.54
2022-12-29T02:54:01.315Z,983.66
2022-12-29T02:55:01.307Z,983.63
2022-12-29T02:56:01.260Z,983.53
2022-12-29T02:57:01.272Z,983.53
2022-12-29T02:58:01.271Z,983.57
2022-12-29T02:59:01.223Z,983.60
2022-12-29T03:00:01.264Z,983.51
2022-12-29T03:01:01.285Z,983.53
2022-12-29T03:02:01.531Z,983.52
2022-12-29T03:03:01.368Z,983.61
2022-12-29T03:04:01.218Z,983.54
2022-12-29T03:05:01.192Z,983.50
2022-12-29T03:06:01.186Z,983.30
2022-12-29T03:07:01.165Z,983.38
2022-12-29T03:08:01.238Z,983.49
2022-12-29T03:09:01.220Z,983.40
2022-12-29T03:10:01.181Z,983.36
2022-12-29T03:11:01.168Z,983.38
2022-12-29T03:12:01.199Z,983.43
2022-12-29T03:13:01.149Z,983.37
2022-12-29T03:14:01.222Z,983.28
2022-12-29T03:15:01.109Z,983.37
2022-12-29T03:16:01.147Z,983.29
2022-12-29T03:17:01.168Z,983.30
2022-12-29T03:18:01.091Z,983.20
2022-12-29T03:19:01.101Z,983.19
2022-12-29T03:20:01.104Z,983.11
2022-12-29T03:21:01.099Z,982.99
2022-12-29T03:22:01.099Z,983.04
2022-12-29T03:23:01.083Z,983.09
2022-12-29T03:24:01.142Z,983.13
2022-12-29T03:25:01.046Z,983.16
2022-12-29T03:26:01.046Z,983.17
2022-12-29T03:27:01.026Z,983.12
2022-12-29T03:28:01.031Z,983.18
2022-12-29T03:29:01.024Z,983.04
2022-12-29T03:30:01.056Z,983.09
2022-12-29T03:31:01.215Z,983.02
2022-12-29T03:32:01.057Z,982.92
2022-12-29T03:33:00.983Z,983.05
2022-12-29T03:34:01.007Z,983.12
2022-12-29T03:35:00.981Z,983.12
2022-12-29T03:36:00.972Z,983.21
2022-12-29T03:37:01.034Z,983.13
2022-12-29T03:38:01.019Z,983.10
2022-12-29T03:39:00.987Z,983.04
2022-12-29T03:40:00.999Z,983.11
2022-12-29T03:41:00.959Z,983.21
2022-12-29T03:42:00.956Z,983.13
2022-12-29T03:43:00.921Z,983.11
2022-12-29T03:44:00.968Z,983.16
2022-12-29T03:45:00.916Z,983.11
2022-12-29T03:46:01.045Z,983.11
2022-12-29T03:47:00.921Z,983.21
2022-12-29T03:48:00.895Z,983.22
2022-12-29T03:49:00.969Z,983.22
2022-12-29T03:50:00.886Z,983.12
2022-12-29T03:51:00.921Z,983.21
2022-12-29T03:52:00.934Z,983.14
2022-12-29T03:53:00.992Z,983.12
2022-12-29T03:54:00.883Z,983.20
2022-12-29T03:55:01.087Z,983.17
2022-12-29T03:56:00.820Z,983.23
2022-12-29T03:57:00.830Z,983.17
2022-12-29T03:58:00.919Z,983.25
2022-12-29T03:59:00.891Z,983.28
2022-12-29T04:00:00.824Z,983.18
2022-12-29T04:01:00.971Z,983.24
2022-12-29T04:02:01.002Z,983.31
2022-12-29T04:03:00.934Z,983.27
2022-12-29T04:04:00.799Z,983.38
2022-12-29T04:05:00.766Z,983.27
2022-12-29T04:06:00.885Z,983.25
2022-12-29T04:07:00.758Z,983.18
2022-12-29T04:08:00.761Z,983.27
2022-12-29T04:09:00.738Z,983.28
2022-12-29T04:10:00.841Z,983.24
2022-12-29T04:11:00.744Z,983.20
2022-12-29T04:12:00.727Z,983.28
2022-12-29T04:13:00.708Z,983.35
2022-12-29T04:14:00.707Z,983.37
2022-12-29T04:15:00.707Z,983.32
2022-12-29T04:16:00.801Z,983.27
2022-12-29T04:17:00.676Z,983.23
2022-12-29T04:18:00.739Z,983.11
2022-12-29T04:19:00.711Z,983.13
2022-12-29T04:20:00.675Z,983.07
2022-12-29T04:21:00.758Z,983.04
2022-12-29T04:22:00.689Z,983.09
2022-12-29T04:23:00.649Z,983.08
2022-12-29T04:24:00.636Z,983.11
2022-12-29T04:25:00.728Z,983.12
2022-12-29T04:26:00.783Z,983.19
2022-12-29T04:27:00.598Z,983.11
2022-12-29T04:28:00.646Z,983.16
2022-12-29T04:29:00.603Z,983.11
2022-12-29T04:30:00.607Z,983.10
2022-12-29T04:31:01.698Z,983.11
2022-12-29T04:32:00.566Z,983.07
2022-12-29T04:33:00.580Z,983.10
2022-12-29T04:34:00.632Z,983.12
2022-12-29T04:35:00.548Z,983.14
2022-12-29T04:36:00.557Z,983.18
2022-12-29T04:37:00.539Z,983.13
2022-12-29T04:38:00.526Z,983.12
2022-12-29T04:39:00.518Z,983.12
2022-12-29T04:40:00.553Z,983.09
2022-12-29T04:41:00.523Z,983.09
2022-12-29T04:42:00.530Z,983.03
2022-12-29T04:43:00.527Z,983.11
2022-12-29T04:44:00.487Z,982.92
2022-12-29T04:45:00.549Z,982.99
2022-12-29T04:46:00.583Z,983.11
2022-12-29T04:47:00.455Z,983.04
2022-12-29T04:48:00.502Z,982.94
2022-12-29T04:49:00.511Z,982.98
2022-12-29T04:50:00.521Z,982.97
2022-12-29T04:51:00.462Z,982.96
2022-12-29T04:52:00.542Z,983.06
2022-12-29T04:53:00.436Z,982.93
2022-12-29T04:54:00.442Z,983.04
2022-12-29T04:55:00.591Z,982.99
2022-12-29T04:56:00.405Z,982.97
2022-12-29T04:57:00.429Z,982.68
2022-12-29T04:58:00.439Z,982.91
2022-12-29T04:59:00.387Z,982.89
2022-12-29T05:00:00.395Z,982.99
2022-12-29T05:01:00.398Z,982.83
2022-12-29T05:02:00.585Z,982.90
2022-12-29T05:03:00.707Z,982.91
2022-12-29T05:04:00.453Z,982.77
2022-12-29T05:05:00.420Z,982.80
2022-12-29T05:06:00.411Z,982.84
2022-12-29T05:07:00.424Z,982.80
2022-12-29T05:08:00.364Z,982.86
2022-12-29T05:09:00.374Z,982.79
2022-12-29T05:10:00.464Z,982.84
2022-12-29T05:11:00.356Z,982.82
2022-12-29T05:12:00.305Z,982.74
2022-12-29T05:13:00.319Z,982.66
2022-12-29T05:14:00.324Z,982.57
2022-12-29T05:15:00.314Z,982.71
2022-12-29T05:16:00.355Z,982.70
2022-12-29T05:17:00.247Z,982.50
2022-12-29T05:18:00.269Z,982.68
2022-12-29T05:19:00.270Z,982.69
2022-12-29T05:20:00.286Z,982.70
2022-12-29T05:21:00.297Z,982.69
2022-12-29T05:22:00.273Z,982.66
2022-12-29T05:23:00.275Z,982.69
2022-12-29T05:24:00.224Z,982.82
2022-12-29T05:25:00.258Z,982.73
2022-12-29T05:26:00.256Z,982.79
2022-12-29T05:27:00.216Z,982.82
2022-12-29T05:28:00.213Z,982.77
2022-12-29T05:29:00.200Z,982.75
2022-12-29T05:30:00.247Z,982.79
2022-12-29T05:31:00.509Z,982.74
2022-12-29T05:32:00.167Z,982.83
2022-12-29T05:33:00.198Z,982.77
2022-12-29T05:34:00.173Z,982.80
2022-12-29T05:35:00.203Z,982.90
2022-12-29T05:36:00.158Z,982.89
2022-12-29T05:37:00.153Z,982.85
2022-12-29T05:38:00.162Z,982.95
2022-12-29T05:39:00.160Z,982.93
2022-12-29T05:40:00.212Z,982.85
2022-12-29T05:41:00.133Z,982.80
2022-12-29T05:42:00.131Z,982.85
2022-12-29T05:43:00.108Z,982.72
2022-12-29T05:44:00.114Z,982.77
2022-12-29T05:45:00.258Z,982.84
2022-12-29T05:46:00.113Z,982.88
2022-12-29T05:47:00.150Z,982.92
2022-12-29T05:48:00.082Z,982.88
2022-12-29T05:49:00.045Z,982.92
2022-12-29T05:50:00.061Z,982.98
2022-12-29T05:51:00.064Z,982.93
2022-12-29T05:52:00.067Z,982.87
2022-12-29T05:53:00.086Z,983.04
2022-12-29T05:54:00.051Z,982.93
2022-12-29T05:55:00.047Z,982.84
2022-12-29T05:56:00.032Z,982.76
2022-12-29T05:57:00.051Z,982.74
2022-12-29T05:58:00.011Z,982.70
2022-12-29T05:59:00.025Z,982.81
2022-12-29T06:00:00.039Z,982.71
2022-12-29T06:00:59.996Z,982.74
2022-12-29T06:02:00.308Z,982.65
2022-12-29T06:03:00.259Z,982.59
2022-12-29T06:04:00.176Z,982.62
2022-12-29T06:04:59.941Z,982.67
2022-12-29T06:06:00.050Z,982.60
2022-12-29T06:06:59.974Z,982.56
2022-12-29T06:07:59.925Z,982.55
2022-12-29T06:08:59.906Z,982.53
2022-12-29T06:09:59.925Z,982.63
2022-12-29T06:10:59.899Z,982.53
2022-12-29T06:11:59.919Z,982.39
2022-12-29T06:13:00.203Z,982.58
2022-12-29T06:14:00.293Z,982.60
2022-12-29T06:14:59.860Z,982.67
2022-12-29T06:15:59.956Z,982.69
2022-12-29T06:16:59.872Z,982.74
2022-12-29T06:17:59.858Z,982.78
2022-12-29T06:18:59.856Z,982.76
2022-12-29T06:19:59.824Z,982.68
2022-12-29T06:20:59.824Z,982.84
2022-12-29T06:21:59.890Z,982.74
2022-12-29T06:22:59.791Z,982.80
2022-12-29T06:23:59.885Z,982.84
2022-12-29T06:25:04.592Z,982.84
2022-12-29T06:26:00.846Z,982.74
2022-12-29T06:27:00.000Z,982.89
2022-12-29T06:28:00.029Z,982.89
2022-12-29T06:28:59.833Z,982.88
2022-12-29T06:29:59.799Z,982.88
2022-12-29T06:30:59.759Z,982.86
2022-12-29T06:31:59.882Z,982.89
2022-12-29T06:32:59.743Z,982.74
2022-12-29T06:34:04.984Z,982.90
2022-12-29T06:34:59.711Z,982.90
2022-12-29T06:35:59.771Z,983.01
2022-12-29T06:36:59.702Z,982.91
2022-12-29T06:37:59.700Z,982.91
2022-12-29T06:38:59.767Z,982.92
2022-12-29T06:39:59.691Z,982.94
2022-12-29T06:40:59.680Z,982.93
2022-12-29T06:41:59.707Z,982.97
2022-12-29T06:42:59.689Z,982.96
2022-12-29T06:43:59.710Z,983.01
2022-12-29T06:44:59.652Z,982.98
2022-12-29T06:45:59.784Z,983.02
2022-12-29T06:46:59.665Z,982.94
2022-12-29T06:47:59.850Z,982.96
2022-12-29T06:48:59.618Z,983.01
2022-12-29T06:49:59.616Z,983.05
2022-12-29T06:50:59.630Z,982.96
2022-12-29T06:51:59.594Z,983.03
2022-12-29T06:52:59.594Z,982.95
2022-12-29T06:53:59.597Z,982.88
2022-12-29T06:54:59.644Z,982.85
2022-12-29T06:55:59.652Z,982.91
2022-12-29T06:56:59.635Z,982.90
2022-12-29T06:57:59.640Z,982.93
2022-12-29T06:58:59.595Z,982.86
2022-12-29T06:59:59.618Z,982.92
2022-12-29T07:00:59.698Z,982.96
2022-12-29T07:01:59.664Z,982.83
2022-12-29T07:02:59.885Z,982.84
2022-12-29T07:03:59.551Z,982.91
2022-12-29T07:04:59.695Z,982.86
2022-12-29T07:05:59.536Z,982.81
2022-12-29T07:06:59.498Z,982.83
2022-12-29T07:07:59.827Z,982.82
2022-12-29T07:08:59.494Z,982.90
2022-12-29T07:09:59.467Z,982.93
2022-12-29T07:10:59.600Z,982.82
2022-12-29T07:11:59.452Z,983.04
2022-12-29T07:12:59.469Z,982.94
2022-12-29T07:14:02.638Z,982.95
2022-12-29T07:14:59.507Z,982.98
2022-12-29T07:15:59.435Z,983.01
2022-12-29T07:16:59.488Z,983.04
2022-12-29T07:17:59.444Z,983.03
2022-12-29T07:18:59.411Z,983.08
2022-12-29T07:19:59.464Z,983.03
2022-12-29T07:20:59.400Z,983.03
2022-12-29T07:21:59.405Z,983.04
2022-12-29T07:22:59.407Z,983.05
2022-12-29T07:23:59.397Z,982.97
2022-12-29T07:24:59.357Z,983.01
2022-12-29T07:25:59.370Z,983.03
2022-12-29T07:26:59.356Z,982.89
2022-12-29T07:27:59.365Z,982.92
2022-12-29T07:28:59.357Z,982.97
2022-12-29T07:29:59.440Z,983.01
2022-12-29T07:30:59.340Z,982.96
2022-12-29T07:31:59.370Z,982.98
2022-12-29T07:32:59.336Z,983.02
2022-12-29T07:33:59.358Z,983.01
2022-12-29T07:34:59.288Z,982.99
2022-12-29T07:35:59.310Z,982.91
2022-12-29T07:36:59.855Z,982.99
2022-12-29T07:37:59.272Z,983.06
2022-12-29T07:38:59.307Z,983.06
2022-12-29T07:39:59.259Z,983.13
2022-12-29T07:40:59.284Z,983.07
2022-12-29T07:42:04.585Z,983.07
2022-12-29T07:43:00.248Z,983.06
2022-12-29T07:43:59.236Z,983.10
2022-12-29T07:44:59.222Z,983.07
2022-12-29T07:45:59.340Z,983.03
2022-12-29T07:46:59.401Z,983.03
2022-12-29T07:47:59.211Z,983.14
2022-12-29T07:48:59.235Z,983.06
2022-12-29T07:49:59.185Z,982.98
2022-12-29T07:50:59.231Z,983.05
2022-12-29T07:51:59.169Z,983.09
2022-12-29T07:52:59.213Z,983.08
2022-12-29T07:53:59.181Z,983.00
2022-12-29T07:54:59.156Z,982.93
2022-12-29T07:55:59.198Z,982.93
2022-12-29T07:56:59.127Z,982.83
2022-12-29T07:57:59.208Z,982.95
2022-12-29T07:58:59.444Z,982.93
2022-12-29T07:59:59.168Z,982.91
2022-12-29T08:00:59.185Z,982.90
2022-12-29T08:01:59.363Z,982.84
2022-12-29T08:02:59.117Z,983.01
2022-12-29T08:03:59.216Z,982.97
2022-12-29T08:04:59.144Z,982.91
2022-12-29T08:05:59.091Z,982.95
2022-12-29T08:06:59.072Z,982.95
2022-12-29T08:07:59.099Z,983.08
2022-12-29T08:09:04.085Z,983.03
2022-12-29T08:10:00.064Z,982.95
2022-12-29T08:10:59.034Z,983.08
2022-12-29T08:11:59.034Z,982.93
2022-12-29T08:12:59.020Z,983.04
2022-12-29T08:13:59.036Z,982.90
2022-12-29T08:14:59.007Z,982.90
2022-12-29T08:15:59.104Z,982.98
2022-12-29T08:16:59.074Z,982.91
2022-12-29T08:17:59.138Z,983.02
2022-12-29T08:18:58.979Z,983.01
2022-12-29T08:19:58.981Z,983.01
2022-12-29T08:20:58.975Z,983.00
2022-12-29T08:21:58.949Z,983.10
2022-12-29T08:22:58.961Z,983.04
2022-12-29T08:23:58.972Z,983.02
2022-12-29T08:24:58.946Z,983.07
2022-12-29T08:25:58.952Z,983.02
2022-12-29T08:27:02.980Z,983.01
2022-12-29T08:27:59.939Z,983.04
2022-12-29T08:28:58.945Z,983.19
2022-12-29T08:29:58.927Z,983.05
2022-12-29T08:30:59.074Z,983.05
2022-12-29T08:31:58.885Z,983.12
2022-12-29T08:32:58.880Z,983.09
2022-12-29T08:33:59.264Z,983.11
2022-12-29T08:34:58.881Z,983.19
2022-12-29T08:35:58.899Z,983.10
2022-12-29T08:36:58.935Z,983.16
2022-12-29T08:37:58.857Z,983.23
2022-12-29T08:38:58.846Z,983.18
2022-12-29T08:39:58.863Z,983.19
2022-12-29T08:40:58.875Z,983.16
2022-12-29T08:41:58.806Z,983.31
2022-12-29T08:42:58.924Z,983.23
2022-12-29T08:43:58.857Z,983.36
2022-12-29T08:44:58.882Z,983.37
2022-12-29T08:45:58.854Z,983.37
2022-12-29T08:46:58.825Z,983.41
2022-12-29T08:47:58.853Z,983.42
2022-12-29T08:48:58.838Z,983.43
2022-12-29T08:49:58.812Z,983.48
2022-12-29T08:50:58.780Z,983.41
2022-12-29T08:51:58.758Z,983.44
2022-12-29T08:52:58.776Z,983.47
2022-12-29T08:53:58.728Z,983.46
2022-12-29T08:54:58.773Z,983.37
2022-12-29T08:56:04.058Z,983.47
2022-12-29T08:56:59.732Z,983.49
2022-12-29T08:57:58.715Z,983.52
2022-12-29T08:58:58.698Z,983.49
2022-12-29T08:59:58.715Z,983.46
2022-12-29T09:00:58.711Z,983.43
2022-12-29T09:01:58.928Z,983.43
2022-12-29T09:02:58.952Z,983.45
2022-12-29T09:04:16.416Z,983.52
2022-12-29T09:04:59.676Z,983.53
2022-12-29T09:05:58.744Z,983.55
2022-12-29T09:06:58.671Z,983.36
2022-12-29T09:07:58.802Z,983.47
2022-12-29T09:08:58.628Z,983.51
2022-12-29T09:09:58.634Z,983.41
2022-12-29T09:10:58.605Z,983.59
2022-12-29T09:11:58.762Z,983.53
2022-12-29T09:12:58.588Z,983.58
2022-12-29T09:13:58.591Z,983.63
2022-12-29T09:14:58.605Z,983.62
2022-12-29T09:15:58.657Z,983.58
2022-12-29T09:16:58.582Z,983.60
2022-12-29T09:17:58.580Z,983.71
2022-12-29T09:18:58.546Z,983.71
2022-12-29T09:19:58.549Z,983.68
2022-12-29T09:20:58.557Z,983.67
2022-12-29T09:21:58.627Z,983.65
2022-12-29T09:22:58.531Z,983.71
2022-12-29T09:23:58.513Z,983.69
2022-12-29T09:24:58.499Z,983.66
2022-12-29T09:25:58.507Z,983.63
2022-12-29T09:26:58.501Z,983.70
2022-12-29T09:27:58.641Z,983.78
2022-12-29T09:28:58.517Z,983.78
2022-12-29T09:29:58.481Z,983.81
2022-12-29T09:30:58.681Z,983.78
2022-12-29T09:31:58.464Z,983.78
2022-12-29T09:32:58.537Z,983.62
2022-12-29T09:33:58.560Z,983.62
2022-12-29T09:34:58.449Z,983.64
2022-12-29T09:35:58.419Z,983.73
2022-12-29T09:36:58.581Z,983.80
2022-12-29T09:37:58.457Z,983.88
2022-12-29T09:38:58.669Z,983.98
2022-12-29T09:39:58.409Z,983.90
2022-12-29T09:40:58.546Z,983.86
2022-12-29T09:41:58.376Z,983.96
2022-12-29T09:42:58.483Z,983.91
2022-12-29T09:43:58.428Z,983.98
2022-12-29T09:44:58.357Z,984.01
2022-12-29T09:45:58.479Z,984.07
2022-12-29T09:46:58.549Z,984.03
2022-12-29T09:47:58.411Z,984.03
2022-12-29T09:48:58.312Z,984.08
2022-12-29T09:49:58.318Z,984.06
2022-12-29T09:50:58.322Z,984.03
2022-12-29T09:51:58.327Z,984.00
2022-12-29T09:52:58.298Z,984.02
2022-12-29T09:53:58.344Z,983.97
2022-12-29T09:55:03.787Z,984.01
2022-12-29T09:55:59.302Z,984.07
2022-12-29T09:56:58.398Z,984.00
2022-12-29T09:57:58.271Z,983.93
2022-12-29T09:58:58.277Z,983.90
2022-12-29T09:59:58.276Z,983.99
2022-12-29T10:00:58.347Z,983.90
2022-12-29T10:01:58.512Z,983.98
2022-12-29T10:02:58.375Z,983.89
2022-12-29T10:03:58.226Z,983.91
2022-12-29T10:04:58.223Z,984.01
2022-12-29T10:05:58.221Z,983.83
2022-12-29T10:07:59.217Z,983.99
2022-12-29T10:08:58.194Z,983.98
2022-12-29T10:09:58.224Z,984.04
2022-12-29T10:10:58.204Z,983.99
2022-12-29T10:11:58.185Z,984.08
2022-12-29T10:12:58.213Z,984.09
2022-12-29T10:13:58.177Z,983.98
2022-12-29T10:14:58.162Z,984.00
2022-12-29T10:15:58.279Z,984.03
2022-12-29T10:16:58.140Z,983.98
2022-12-29T10:17:58.165Z,984.02
2022-12-29T10:18:58.138Z,984.00
2022-12-29T10:19:58.145Z,984.01
2022-12-29T10:20:58.102Z,984.03
2022-12-29T10:21:58.105Z,984.04
2022-12-29T10:22:58.288Z,983.97
2022-12-29T10:23:58.098Z,983.99
2022-12-29T10:24:58.108Z,984.07
2022-12-29T10:25:58.126Z,983.96
2022-12-29T10:26:58.066Z,984.02
2022-12-29T10:27:58.128Z,984.01
2022-12-29T10:28:58.053Z,984.01
2022-12-29T10:29:58.064Z,984.03
2022-12-29T10:31:01.137Z,984.01
2022-12-29T10:31:59.170Z,984.00
2022-12-29T10:32:58.061Z,983.95
2022-12-29T10:33:58.103Z,984.06
2022-12-29T10:34:58.024Z,984.02
2022-12-29T10:35:58.037Z,984.07
2022-12-29T10:36:58.075Z,984.02
2022-12-29T10:37:58.033Z,983.86
2022-12-29T10:38:57.992Z,984.03
2022-12-29T10:39:58.030Z,984.01
2022-12-29T10:40:57.984Z,983.99
2022-12-29T10:41:58.006Z,983.98
2022-12-29T10:42:57.974Z,983.97
2022-12-29T10:43:57.974Z,983.89
2022-12-29T10:44:58.278Z,983.85
2022-12-29T10:45:57.985Z,983.92
2022-12-29T10:46:57.963Z,983.90
2022-12-29T10:47:57.949Z,983.79
2022-12-29T10:48:57.946Z,983.85
2022-12-29T10:49:57.928Z,983.91
2022-12-29T10:51:01.768Z,983.88
2022-12-29T10:51:57.963Z,983.61
2022-12-29T10:52:57.918Z,983.84
2022-12-29T10:53:57.977Z,983.86
2022-12-29T10:54:58.071Z,983.84
2022-12-29T10:55:57.927Z,983.91
2022-12-29T10:56:57.860Z,983.83
2022-12-29T10:57:58.015Z,983.88
2022-12-29T10:58:57.882Z,983.85
2022-12-29T10:59:58.382Z,983.85
2022-12-29T11:00:57.902Z,983.62
2022-12-29T11:01:58.086Z,983.88
2022-12-29T11:02:58.015Z,983.81
2022-12-29T11:03:57.846Z,983.83
2022-12-29T11:04:57.868Z,983.95
2022-12-29T11:05:57.874Z,983.80
2022-12-29T11:06:57.857Z,983.95
2022-12-29T11:07:57.829Z,983.86
2022-12-29T11:08:57.790Z,983.87
2022-12-29T11:09:57.776Z,983.85
2022-12-29T11:10:57.776Z,983.82
2022-12-29T11:11:57.769Z,983.88
2022-12-29T11:12:57.783Z,983.83
2022-12-29T11:13:58.099Z,983.83
2022-12-29T11:14:57.739Z,983.83
2022-12-29T11:15:57.736Z,983.87
2022-12-29T11:16:57.774Z,983.87
2022-12-29T11:17:57.734Z,983.81
2022-12-29T11:18:57.794Z,983.78
2022-12-29T11:19:57.723Z,983.76
2022-12-29T11:20:57.721Z,983.68
2022-12-29T11:21:57.879Z,983.85
2022-12-29T11:22:57.692Z,983.90
2022-12-29T11:23:57.702Z,983.84
2022-12-29T11:24:57.705Z,983.85
2022-12-29T11:25:57.674Z,983.79
2022-12-29T11:26:57.684Z,983.82
2022-12-29T11:27:57.752Z,983.68
2022-12-29T11:28:57.649Z,983.61
2022-12-29T11:29:57.679Z,983.81
2022-12-29T11:30:57.680Z,983.79
2022-12-29T11:31:57.664Z,983.74
2022-12-29T11:32:57.639Z,983.69
2022-12-29T11:33:57.601Z,983.82
2022-12-29T11:34:57.642Z,983.91
2022-12-29T11:35:57.595Z,983.90
2022-12-29T11:36:57.597Z,983.78
2022-12-29T11:37:57.612Z,983.88
2022-12-29T11:38:57.613Z,983.80
2022-12-29T11:39:57.564Z,983.85
2022-12-29T11:40:57.573Z,983.87
2022-12-29T11:41:57.586Z,983.86
2022-12-29T11:42:57.577Z,983.94
2022-12-29T11:43:57.561Z,983.87
2022-12-29T11:44:57.575Z,983.86
2022-12-29T11:45:57.742Z,983.89
2022-12-29T11:46:57.590Z,983.80
2022-12-29T11:47:57.521Z,983.88
2022-12-29T11:48:57.511Z,983.94
2022-12-29T11:49:57.530Z,983.90
2022-12-29T11:50:57.561Z,983.91
2022-12-29T11:51:57.540Z,983.94
2022-12-29T11:52:57.527Z,983.88
2022-12-29T11:53:57.492Z,983.79
2022-12-29T11:54:57.471Z,983.89
2022-12-29T11:55:57.489Z,983.89
2022-12-29T11:56:57.506Z,983.71
2022-12-29T11:57:57.518Z,983.77
2022-12-29T11:58:57.461Z,983.78
2022-12-29T11:59:57.457Z,983.95
2022-12-29T12:00:57.429Z,983.86
2022-12-29T12:01:57.833Z,983.95
2022-12-29T12:02:57.558Z,983.94
2022-12-29T12:03:57.571Z,983.99
2022-12-29T12:04:57.424Z,983.92
2022-12-29T12:05:57.430Z,983.99
2022-12-29T12:06:57.414Z,984.00
2022-12-29T12:07:57.447Z,984.01
2022-12-29T12:08:57.474Z,984.00
2022-12-29T12:10:03.118Z,983.99
2022-12-29T12:10:57.377Z,984.02
2022-12-29T12:11:57.386Z,984.09
2022-12-29T12:12:57.391Z,984.02
2022-12-29T12:13:57.369Z,984.12
2022-12-29T12:14:57.355Z,984.09
2022-12-29T12:15:57.607Z,984.12
2022-12-29T12:16:57.426Z,983.92
2022-12-29T12:17:57.426Z,984.09
2022-12-29T12:18:57.344Z,984.12
2022-12-29T12:19:57.351Z,984.15
2022-12-29T12:20:57.301Z,983.95
2022-12-29T12:21:57.352Z,984.09
2022-12-29T12:22:57.366Z,984.05
2022-12-29T12:23:57.334Z,984.04
2022-12-29T12:24:57.292Z,984.01
2022-12-29T12:25:57.289Z,984.16
2022-12-29T12:26:57.257Z,984.09
2022-12-29T12:27:57.291Z,983.97
2022-12-29T12:28:57.275Z,984.07